createdAt,value
2022-10-17T00:03:06.325Z,100960.66
2022-10-17T00:08:10.464Z,100963.73
2022-10-17T00:13:13.568Z,100961.96
2022-10-17T00:18:16.367Z,100964.31
2022-10-17T00:23:19.747Z,100968.45
2022-10-17T00:28:22.509Z,100971.25
2022-10-17T00:33:26.411Z,100967.39
2022-10-17T00:38:29.314Z,100970.84
2022-10-17T00:43:54.132Z,100970.54
2022-10-17T00:48:59.393Z,100970.95
2022-10-17T00:54:04.026Z,100969.60
2022-10-17T00:59:09.508Z,100983.04
2022-10-17T01:04:12.921Z,100972.34
2022-10-17T01:09:15.720Z,100967.40
2022-10-17T01:14:27.639Z,100967.31
2022-10-17T01:20:01.381Z,100970.73
2022-10-17T01:25:23.932Z,100963.98
2022-10-17T01:30:51.818Z,100972.62
2022-10-17T01:36:43.676Z,100980.25
2022-10-17T01:42:06.853Z,100981.64
2022-10-17T01:47:13.609Z,100991.10
2022-10-17T01:52:24.130Z,101002.21
2022-10-17T01:57:36.134Z,101013.68
2022-10-17T02:02:40.999Z,101023.70
2022-10-17T02:07:43.799Z,101034.98
2022-10-17T02:13:02.737Z,101036.68
2022-10-17T02:18:30.054Z,101042.30
2022-10-17T02:23:51.186Z,101041.48
2022-10-17T02:29:19.586Z,101041.50
2022-10-17T02:34:28.021Z,101058.30
2022-10-17T02:39:33.075Z,101060.41
2022-10-17T02:44:42.417Z,101053.02
2022-10-17T02:49:50.346Z,101055.77
2022-10-17T02:55:18.447Z,101061.03
2022-10-17T03:00:23.913Z,101065.26
2022-10-17T03:05:29.602Z,101079.45
2022-10-17T03:10:32.383Z,101079.42
2022-10-17T03:15:35.582Z,101087.80
2022-10-17T03:20:38.397Z,101092.72
2022-10-17T03:25:41.410Z,101098.64
2022-10-17T03:30:44.319Z,101096.38
2022-10-17T03:35:47.245Z,101105.27
2022-10-17T03:40:56.408Z,101097.23
2022-10-17T03:46:00.027Z,101102.47
2022-10-17T03:51:06.276Z,101107.36
2022-10-17T03:56:20.859Z,101115.62
2022-10-17T04:01:24.432Z,101117.15
2022-10-17T04:06:27.270Z,101115.75
2022-10-17T04:11:30.181Z,101112.15
2022-10-17T04:16:33.082Z,101122.84
2022-10-17T04:21:35.878Z,101132.05
2022-10-17T04:26:38.680Z,101140.93
2022-10-17T04:31:41.481Z,101135.31
2022-10-17T04:36:44.948Z,101140.64
2022-10-17T04:41:48.005Z,101129.50
2022-10-17T04:46:50.811Z,101140.79
2022-10-17T04:51:53.610Z,101151.48
2022-10-17T04:56:56.413Z,101162.70
2022-10-17T05:01:59.216Z,101166.51
2022-10-17T05:07:02.118Z,101166.35
2022-10-17T05:12:08.008Z,101165.55
2022-10-17T05:17:13.254Z,101159.92
2022-10-17T05:22:16.053Z,101163.63
2022-10-17T05:27:19.160Z,101165.06
2022-10-17T05:32:22.172Z,101166.98
2022-10-17T05:37:24.971Z,101169.68
2022-10-17T05:42:28.209Z,101174.44
2022-10-17T05:47:32.091Z,101173.46
2022-10-17T05:52:35.441Z,101176.98
2022-10-17T05:57:38.737Z,101185.65
2022-10-17T06:02:42.047Z,101190.73
2022-10-17T06:07:44.855Z,101202.85
2022-10-17T06:12:47.656Z,101208.88
2022-10-17T06:17:51.275Z,101209.95
2022-10-17T06:22:54.485Z,101219.44
2022-10-17T06:27:57.403Z,101226.46
2022-10-17T06:33:00.409Z,101217.98
2022-10-17T06:38:04.231Z,101216.65
2022-10-17T06:43:07.546Z,101220.42
2022-10-17T06:48:10.547Z,101226.23
2022-10-17T06:53:13.758Z,101235.56
2022-10-17T06:58:16.903Z,101251.48
2022-10-17T07:03:19.770Z,101249.85
2022-10-17T07:08:23.289Z,101259.04
2022-10-17T07:13:26.198Z,101270.16
2022-10-17T07:18:28.994Z,101267.86
2022-10-17T07:23:32.205Z,101268.35
2022-10-17T07:28:41.127Z,101270.70
2022-10-17T07:38:53.001Z,101266.95
2022-10-17T07:43:56.234Z,101263.33
2022-10-17T07:48:59.428Z,101268.20
2022-10-17T07:54:02.328Z,101270.64
2022-10-17T07:59:08.384Z,101275.71
2022-10-17T08:04:12.441Z,101280.70
2022-10-17T08:09:15.909Z,101284.56
2022-10-17T08:14:18.757Z,101283.38
2022-10-17T08:19:21.665Z,101284.59
2022-10-17T08:24:24.659Z,101280.47
2022-10-17T08:29:28.173Z,101276.77
2022-10-17T08:34:31.005Z,101267.63
2022-10-17T08:39:33.897Z,101270.89
2022-10-17T08:44:44.078Z,101283.42
2022-10-17T08:49:58.174Z,101286.60
2022-10-17T08:55:01.387Z,101276.41
2022-10-17T09:00:14.697Z,101266.91
2022-10-17T09:05:30.614Z,101262.21
2022-10-17T09:10:54.193Z,101268.79
2022-10-17T09:16:33.657Z,101258.86
2022-10-17T09:21:46.289Z,101264.34
2022-10-17T09:26:51.042Z,101258.45
2022-10-17T09:32:05.166Z,101244.73
2022-10-17T09:37:14.683Z,101242.15
2022-10-17T09:42:23.205Z,101245.52
2022-10-17T09:47:32.246Z,101240.00
2022-10-17T09:52:40.346Z,101239.08
2022-10-17T09:57:55.364Z,101242.70
2022-10-17T10:03:21.305Z,101244.77
2022-10-17T10:08:28.408Z,101236.71
2022-10-17T10:13:34.789Z,101222.73
2022-10-17T10:18:37.903Z,101212.02
2022-10-17T10:23:43.177Z,101201.73
2022-10-17T10:28:54.534Z,101196.40
2022-10-17T10:34:00.098Z,101186.30
2022-10-17T10:39:33.658Z,101188.94
2022-10-17T10:44:39.712Z,101187.35
2022-10-17T10:49:44.279Z,101183.80
2022-10-17T10:55:05.306Z,101173.90
2022-10-17T11:00:23.363Z,101172.46
2022-10-17T11:06:12.148Z,101170.77
2022-10-17T11:11:34.098Z,101166.59
2022-10-17T11:16:55.646Z,101165.76
2022-10-17T11:22:23.986Z,101160.66
2022-10-17T11:27:30.812Z,101162.76
2022-10-17T11:32:43.039Z,101155.48
2022-10-17T11:37:54.975Z,101147.11
2022-10-17T11:43:02.489Z,101142.32
2022-10-17T11:48:13.180Z,101129.50
2022-10-17T11:53:30.161Z,101122.31
2022-10-17T11:59:11.008Z,101112.70
2022-10-17T12:04:27.426Z,101108.19
2022-10-17T12:09:41.098Z,101110.35
2022-10-17T12:14:46.904Z,101105.91
2022-10-17T12:19:49.998Z,101100.41
2022-10-17T12:25:04.238Z,101094.83
2022-10-17T12:30:13.693Z,101091.73
2022-10-17T12:35:21.746Z,101083.05
2022-10-17T12:40:37.217Z,101077.86
2022-10-17T12:45:51.611Z,101081.46
2022-10-17T12:51:34.853Z,101079.40
2022-10-17T12:56:39.931Z,101079.45
2022-10-17T13:01:48.076Z,101075.91
2022-10-17T13:06:57.174Z,101068.80
2022-10-17T13:12:04.794Z,101066.52
2022-10-17T13:17:20.804Z,101065.48
2022-10-17T13:22:27.506Z,101069.73
2022-10-17T13:27:34.184Z,101067.43
2022-10-17T13:32:38.010Z,101061.13
2022-10-17T13:37:50.274Z,101061.40
2022-10-17T13:42:58.053Z,101052.36
2022-10-17T13:48:08.345Z,101036.85
2022-10-17T13:53:19.221Z,101016.83
2022-10-17T13:58:22.378Z,101007.13
2022-10-17T14:03:32.558Z,101007.91
2022-10-17T14:09:01.740Z,101005.38
2022-10-17T14:14:15.475Z,100992.20
2022-10-17T14:19:24.989Z,100988.79
2022-10-17T14:24:31.636Z,100987.99
2022-10-17T14:29:52.855Z,100984.67
2022-10-17T14:35:10.594Z,100985.95
2022-10-17T14:40:26.381Z,100990.20
2022-10-17T14:45:38.756Z,100989.89
2022-10-17T14:56:00.659Z,100987.87
2022-10-17T15:01:03.546Z,100985.41
2022-10-17T15:06:18.543Z,100975.77
2022-10-17T15:11:21.339Z,100975.73
2022-10-17T15:16:26.184Z,100982.30
2022-10-17T15:21:47.288Z,100981.64
2022-10-17T15:26:50.547Z,100970.67
2022-10-17T15:31:53.535Z,100968.19
2022-10-17T15:36:56.572Z,100972.02
2022-10-17T15:42:00.174Z,100972.50
2022-10-17T15:47:02.965Z,100974.33
2022-10-17T15:52:05.972Z,100972.16
2022-10-17T15:57:18.194Z,100971.61
2022-10-17T16:02:22.940Z,100971.35
2022-10-17T16:07:25.852Z,100968.02
2022-10-17T16:12:30.205Z,100967.55
2022-10-17T16:17:33.056Z,100965.37
2022-10-17T16:22:37.021Z,100964.71
2022-10-17T16:27:39.923Z,100970.73
2022-10-17T16:32:43.680Z,100969.00
2022-10-17T16:37:47.681Z,100962.06
2022-10-17T16:42:50.461Z,100956.63
2022-10-17T16:47:53.736Z,100956.25
2022-10-17T16:52:56.492Z,100948.97
2022-10-17T16:58:00.139Z,100945.67
2022-10-17T17:03:03.606Z,100943.66
2022-10-17T17:08:10.350Z,100939.54
2022-10-17T17:13:16.198Z,100936.59
2022-10-17T17:18:19.515Z,100935.86
2022-10-17T17:23:22.313Z,100926.31
2022-10-17T17:28:26.399Z,100918.30
2022-10-17T17:33:30.373Z,100920.29
2022-10-17T17:38:35.228Z,100928.81
2022-10-17T17:43:38.130Z,100921.19
2022-10-17T17:48:41.940Z,100919.45
2022-10-17T17:53:45.166Z,100918.29
2022-10-17T17:58:54.523Z,100918.43
2022-10-17T18:03:59.680Z,100919.64
2022-10-17T18:09:02.726Z,100911.65
2022-10-17T18:14:08.601Z,100901.77
2022-10-17T18:19:12.004Z,100898.39
2022-10-17T18:24:14.775Z,100902.90
2022-10-17T18:29:17.885Z,100898.11
2022-10-17T18:34:20.896Z,100900.09
2022-10-17T18:39:24.413Z,100898.11
2022-10-17T18:44:27.325Z,100896.42
2022-10-17T18:49:30.228Z,100891.30
2022-10-17T18:54:34.870Z,100879.66
2022-10-17T18:59:37.777Z,100885.55
2022-10-17T19:04:41.152Z,100884.85
2022-10-17T19:09:43.989Z,100880.58
2022-10-17T19:14:49.041Z,100869.21
2022-10-17T19:19:53.379Z,100863.60
2022-10-17T19:24:56.182Z,100852.38
2022-10-17T19:29:59.289Z,100852.27
2022-10-17T19:35:02.091Z,100846.05
2022-10-17T19:40:06.150Z,100851.23
2022-10-17T19:45:09.988Z,100850.73
2022-10-17T19:50:12.852Z,100852.98
2022-10-17T19:55:15.656Z,100854.63
2022-10-17T20:00:18.562Z,100855.14
2022-10-17T20:05:23.751Z,100840.56
2022-10-17T20:10:28.975Z,100836.48
2022-10-17T20:15:32.084Z,100839.02
2022-10-17T20:20:35.970Z,100841.36
2022-10-17T20:25:38.712Z,100830.74
2022-10-17T20:30:46.570Z,100822.63
2022-10-17T20:35:49.543Z,100825.45
2022-10-17T20:40:52.338Z,100822.31
2022-10-17T20:46:03.509Z,100824.73
2022-10-17T20:51:09.363Z,100819.41
2022-10-17T20:56:21.978Z,100818.91
2022-10-17T21:01:26.512Z,100814.47
2022-10-17T21:06:29.608Z,100818.02
2022-10-17T21:11:32.763Z,100821.41
2022-10-17T21:16:37.554Z,100817.18
2022-10-17T21:21:43.017Z,100815.78
2022-10-17T21:26:47.769Z,100822.86
2022-10-17T21:31:51.176Z,100820.25
2022-10-17T21:36:53.950Z,100817.75
2022-10-17T21:41:56.889Z,100814.83
2022-10-17T21:46:59.689Z,100815.73
2022-10-17T21:52:06.996Z,100812.02
2022-10-17T21:57:09.818Z,100814.16
2022-10-17T22:02:14.858Z,100807.27
2022-10-17T22:07:17.658Z,100804.04
2022-10-17T22:12:20.458Z,100805.45
2022-10-17T22:17:23.462Z,100805.19
2022-10-17T22:22:26.265Z,100806.42
2022-10-17T22:27:29.371Z,100803.08
2022-10-17T22:32:32.587Z,100799.84
2022-10-17T22:37:35.594Z,100795.94
2022-10-17T22:42:38.392Z,100798.80
2022-10-17T22:47:41.808Z,100798.79
2022-10-17T22:52:44.609Z,100797.81
2022-10-17T22:57:47.663Z,100793.96
2022-10-17T23:02:54.411Z,100802.89
2022-10-17T23:07:57.520Z,100802.36
2022-10-17T23:13:00.321Z,100795.60
2022-10-17T23:18:04.118Z,100794.39
2022-10-17T23:23:06.951Z,100793.84
2022-10-17T23:28:10.780Z,100789.25
2022-10-17T23:33:14.397Z,100794.65
2022-10-17T23:38:17.198Z,100790.61
2022-10-17T23:43:20.207Z,100786.77
2022-10-17T23:48:23.416Z,100783.67
2022-10-17T23:53:27.495Z,100778.91
2022-10-17T23:58:31.168Z,100784.88
